WetterOnline ( http://www.wetteronline.de )

Wetter aktuell PLZ Bereich 36404

Aktuelles Wetter: Bad Hersfeld (273m)

6-stündlich | Neueste Meldungen
Ortszeit Temperatur Wetter
Fr, 19.10. 8:00 10.3° C bewölkt
Fr, 19.10. 2:00 10.0° C bedeckt
Do, 18.10. 20:00 14.0° C bedeckt
Do, 18.10. 14:00 15.6° C bedeckt
Do, 18.10. 8:00 6.2° C Nebel
Do, 18.10. 2:00 8.5° C Nebel
Mi, 17.10. 20:00 14.5° C wolkig
Mi, 17.10. 14:00 20.8° C leicht bewölkt
Ortszeit Temperatur Wetter
Fr, 19.10. 9:00 11.2° C bedeckt
Fr, 19.10. 8:50 11.2° C bedeckt
Fr, 19.10. 8:40 11.1° C bedeckt
Fr, 19.10. 8:30 10.8° C bewölkt
Fr, 19.10. 8:20 10.8° C bewölkt
Fr, 19.10. 8:10 10.7° C bewölkt
Fr, 19.10. 8:00 10.3° C bewölkt
Fr, 19.10. 7:30 10.2° C bedeckt
Fr, 19.10. 7:00 10.2° C bedeckt
Fr, 19.10. 6:30 10.3° C bedeckt
Fr, 19.10. 6:00 10.4° C bedeckt
Ortszeit Relative Feuchte Sichtweite
Fr, 19.10. 8:00 92% 5.0 km
Fr, 19.10. 2:00 87% 11 km
Do, 18.10. 20:00 75% 15 km
Do, 18.10. 14:00 76% 6 km
Do, 18.10. 8:00 97% 0.2 km
Do, 18.10. 2:00 98% <100 m
Mi, 17.10. 20:00 87% 10 km
Mi, 17.10. 14:00 57% 13 km
Ortszeit Relative Feuchte Sichtweite
Fr, 19.10. 9:00 90% 5.0 km
Fr, 19.10. 8:50 90% -
Fr, 19.10. 8:40 90% -
Fr, 19.10. 8:30 92% 5.0 km
Fr, 19.10. 8:20 92% -
Fr, 19.10. 8:10 92% -
Fr, 19.10. 8:00 92% 5.0 km
Fr, 19.10. 7:30 92% 5.0 km
Fr, 19.10. 7:00 91% 5.0 km
Fr, 19.10. 6:30 90% 5.0 km
Fr, 19.10. 6:00 89% 6 km
Ortszeit Niederschlagsmenge Niederschlagsart
Fr, 19.10. 8:00 0.0 l/m2 in 12 Std. -
Fr, 19.10. 2:00 0.0 l/m2 in 6 Std. -
Do, 18.10. 20:00 0.0 l/m2 in 12 Std. -
Do, 18.10. 14:00 0.0 l/m2 in 6 Std. -
Do, 18.10. 8:00 0.0 l/m2 in 12 Std. -
Do, 18.10. 2:00 0.0 l/m2 in 6 Std. -
Mi, 17.10. 20:00 0.0 l/m2 in 12 Std. -
Mi, 17.10. 14:00 0.0 l/m2 in 6 Std. -
Ortszeit Niederschlagsmenge Niederschlagsart
Fr, 19.10. 9:00 0.0 l/m2 in 1 Std. -
Fr, 19.10. 8:50 keine Meldung -
Fr, 19.10. 8:40 keine Meldung -
Fr, 19.10. 8:30 0.0 l/m2 in 1 Std. -
Fr, 19.10. 8:20 keine Meldung -
Fr, 19.10. 8:10 keine Meldung -
Fr, 19.10. 8:00 0.0 l/m2 in 1 Std. -
Fr, 19.10. 7:30 0.0 l/m2 in 1 Std. -
Fr, 19.10. 7:00 0.0 l/m2 in 1 Std. -
Fr, 19.10. 6:30 0.0 l/m2 in 1 Std. -
Fr, 19.10. 6:00 0.0 l/m2 in 1 Std. -
Ortszeit Stärke Spitze Richtung
km/h Bft. km/h Grad Sektor
Fr, 19.10. 8:00 4 1 11 30° NO
Fr, 19.10. 2:00 4 1 22 280° W
Do, 18.10. 20:00 7 2 25 350° N
Do, 18.10. 14:00 9 2 19 360° N
Do, 18.10. 8:00 0 0 7 - -
Do, 18.10. 2:00 0 0 7 - -
Mi, 17.10. 20:00 2 1 11 10° N
Mi, 17.10. 14:00 4 1 7 250° W
Ortszeit Stärke Spitze Richtung
km/h Bft. km/h Grad Sektor
Fr, 19.10. 9:00 7 2 7 20° N
Fr, 19.10. 8:50 7 2 - 20° N
Fr, 19.10. 8:40 6 1 - 20° N
Fr, 19.10. 8:30 4 1 7 30° NO
Fr, 19.10. 8:20 4 1 - 30° NO
Fr, 19.10. 8:10 4 1 - 40° NO
Fr, 19.10. 8:00 4 1 11 30° NO
Fr, 19.10. 7:30 6 1 7 40° NO
Fr, 19.10. 7:00 4 1 7 30° NO
Fr, 19.10. 6:30 4 1 7 20° N
Fr, 19.10. 6:00 6 1 7 20° N
Ortszeit Untergrenze Bedeckung Gattung
total tief tief mittel hoch
Fr, 19.10. 8:00 300 m 7/8 7/8 - - -
Fr, 19.10. 2:00 990 m 8/8 8/8 - - -
Do, 18.10. 20:00 900 m 8/8 8/8 - - -
Do, 18.10. 14:00 600 m 8/8 8/8 - - -
Do, 18.10. 8:00 <30 m 8/8 8/8 - - -
Do, 18.10. 2:00 30 m 8/8 4/8 - - -
Mi, 17.10. 20:00 7800 m 8/8 0/8 - - -
Mi, 17.10. 14:00 8700 m 8/8 0/8 - - -
Ortszeit Bedeckungsgrad in Achtel und Wolkenuntergrenze
Fr, 19.10. 9:00 8(270m)
Fr, 19.10. 8:50 8(270m)
Fr, 19.10. 8:40 8(270m)
Fr, 19.10. 8:30 7(270m)
Fr, 19.10. 8:20 7(270m)
Fr, 19.10. 8:10 7(270m) 7(570m)
Fr, 19.10. 8:00 7(300m) 7(600m) 7(1320m)
Fr, 19.10. 7:30 2(300m) 4(630m) 8(1350m)
Fr, 19.10. 7:00 8(1380m)
Fr, 19.10. 6:30 3(630m) 8(1320m)
Fr, 19.10. 6:00 5(570m) 7(1110m) 8(1320m)
Ortszeit Luftdruck NN (hPa) Tendenz (hPa in 3 Std.)
Fr, 19.10. 8:00 1024 + 0,3
Fr, 19.10. 2:00 1024 - 0,5
Do, 18.10. 20:00 1023 + 0,8
Do, 18.10. 14:00 1022 - 0,2
Do, 18.10. 8:00 1022 + 1,2
Do, 18.10. 2:00 1021 + 0,2
Mi, 17.10. 20:00 1019 + 0,9
Mi, 17.10. 14:00 1018 - 1,1
Ortszeit Luftdruck NN (hPa) Tendenz (hPa in 3 Std.)
Fr, 19.10. 9:00 1024 + 0,6
Fr, 19.10. 8:50 1024 keine Meldung
Fr, 19.10. 8:40 1024 keine Meldung
Fr, 19.10. 8:30 1024 + 0,3
Fr, 19.10. 8:20 1024 keine Meldung
Fr, 19.10. 8:10 1024 keine Meldung
Fr, 19.10. 8:00 1024 + 0,3
Fr, 19.10. 7:30 1024 + 0,2
Fr, 19.10. 7:00 1024 + 0,2
Fr, 19.10. 6:30 1024 + 0,2
Fr, 19.10. 6:00 1024 + 0,2
Ortszeit Schneehöhe (cm)
Fr, 19.10. 8:00 0
Fr, 19.10. 2:00 0
Do, 18.10. 20:00 0
Do, 18.10. 14:00 0
Do, 18.10. 8:00 0
Do, 18.10. 2:00 0
Mi, 17.10. 20:00 0
Mi, 17.10. 14:00 0
Ortszeit Schneehöhe (cm)
Fr, 19.10. 9:00 0
Fr, 19.10. 8:50 0
Fr, 19.10. 8:40 0
Fr, 19.10. 8:30 0
Fr, 19.10. 8:20 0
Fr, 19.10. 8:10 0
Fr, 19.10. 8:00 0
Fr, 19.10. 7:30 0
Fr, 19.10. 7:00 0
Fr, 19.10. 6:30 0
Fr, 19.10. 6:00 0
Link zu dieser Seite / Seite empfehlen

Das Wetter in ...